createdAt,value
2023-03-02T00:02:13.879Z,2.40
2023-03-02T00:04:40.392Z,2.40
2023-03-02T00:07:10.544Z,2.50
2023-03-02T00:09:38.464Z,2.30
2023-03-02T00:12:06.039Z,2.20
2023-03-02T00:14:32.576Z,2.20
2023-03-02T00:16:59.142Z,2.20
2023-03-02T00:19:25.635Z,2.20
2023-03-02T00:21:52.180Z,2.10
2023-03-02T00:24:18.741Z,2.10
2023-03-02T00:26:45.625Z,2.20
2023-03-02T00:29:12.240Z,2.30
2023-03-02T00:31:38.843Z,2.30
2023-03-02T00:34:05.548Z,2.20
2023-03-02T00:36:32.473Z,2.10
2023-03-02T00:38:59.256Z,2.00
2023-03-02T00:41:25.836Z,1.90
2023-03-02T00:43:52.405Z,2.00
2023-03-02T00:46:22.314Z,1.90
2023-03-02T00:48:49.813Z,1.90
2023-03-02T00:51:16.499Z,1.90
2023-03-02T00:53:43.169Z,1.90
2023-03-02T00:56:10.283Z,1.80
2023-03-02T00:58:37.297Z,1.90
2023-03-02T01:01:10.427Z,1.70
2023-03-02T01:03:37.288Z,1.60
2023-03-02T01:06:04.680Z,1.70
2023-03-02T01:08:31.569Z,1.80
2023-03-02T01:11:01.267Z,1.90
2023-03-02T01:13:28.648Z,2.10
2023-03-02T01:16:03.060Z,2.20
2023-03-02T01:18:30.142Z,2.20
2023-03-02T01:21:14.019Z,2.10
2023-03-02T01:23:40.862Z,2.10
2023-03-02T01:26:07.531Z,2.10
2023-03-02T01:28:34.146Z,2.00
2023-03-02T01:31:02.548Z,1.90
2023-03-02T01:33:29.185Z,2.00
2023-03-02T01:35:55.793Z,2.00
2023-03-02T01:38:22.331Z,1.90
2023-03-02T01:44:39.594Z,1.80
2023-03-02T01:47:13.886Z,1.80
2023-03-02T01:49:46.045Z,1.80
2023-03-02T01:52:13.232Z,1.80
2023-03-02T01:54:42.383Z,1.80
2023-03-02T01:57:10.223Z,1.70
2023-03-02T01:59:40.961Z,1.60
2023-03-02T02:02:10.336Z,1.60
2023-03-02T02:04:39.817Z,1.70
2023-03-02T02:07:09.033Z,1.60
2023-03-02T02:09:40.339Z,1.50
2023-03-02T02:12:12.562Z,1.50
2023-03-02T02:14:39.546Z,1.50
2023-03-02T02:17:06.396Z,1.60
2023-03-02T02:19:44.543Z,1.60
2023-03-02T02:22:11.828Z,1.60
2023-03-02T02:24:51.841Z,1.70
2023-03-02T02:27:18.368Z,1.60
2023-03-02T02:29:49.231Z,1.70
2023-03-02T02:32:24.044Z,1.70
2023-03-02T02:34:58.719Z,1.70
2023-03-02T02:37:38.272Z,1.70
2023-03-02T02:40:09.551Z,1.70
2023-03-02T02:42:40.671Z,1.70
2023-03-02T02:45:17.782Z,1.70
2023-03-02T02:47:44.416Z,1.70
2023-03-02T02:50:24.704Z,1.60
2023-03-02T02:53:19.683Z,1.60
2023-03-02T02:55:49.328Z,1.60
2023-03-02T02:58:25.236Z,1.50
2023-03-02T03:00:53.781Z,1.50
2023-03-02T03:03:32.726Z,1.50
2023-03-02T03:06:01.618Z,1.50
2023-03-02T03:08:46.324Z,1.60
2023-03-02T03:11:16.228Z,1.60
2023-03-02T03:13:43.931Z,1.60
2023-03-02T03:16:14.429Z,1.60
2023-03-02T03:18:46.780Z,1.50
2023-03-02T03:21:13.371Z,1.60
2023-03-02T03:23:39.940Z,1.50
2023-03-02T03:26:06.592Z,1.50
2023-03-02T03:28:33.722Z,1.50
2023-03-02T03:31:00.331Z,1.60
2023-03-02T03:33:27.062Z,1.60
2023-03-02T03:35:53.853Z,1.60
2023-03-02T03:38:20.670Z,1.60
2023-03-02T03:40:47.315Z,1.50
2023-03-02T03:43:15.089Z,1.60
2023-03-02T03:45:41.730Z,1.60
2023-03-02T03:48:08.424Z,1.50
2023-03-02T03:50:35.406Z,1.40
2023-03-02T03:53:03.838Z,1.30
2023-03-02T03:55:31.253Z,1.30
2023-03-02T03:57:57.835Z,1.40
2023-03-02T04:00:24.563Z,1.40
2023-03-02T04:02:51.312Z,1.30
2023-03-02T04:05:18.358Z,1.30
2023-03-02T04:07:45.026Z,1.40
2023-03-02T04:10:12.464Z,1.30
2023-03-02T04:12:40.990Z,1.30
2023-03-02T04:15:10.134Z,1.30
2023-03-02T04:17:36.686Z,1.30
2023-03-02T04:20:06.770Z,1.20
2023-03-02T04:22:33.454Z,1.20
2023-03-02T04:25:00.008Z,1.30
2023-03-02T04:27:26.563Z,1.20
2023-03-02T04:29:53.152Z,1.20
2023-03-02T04:32:20.561Z,1.20
2023-03-02T04:34:47.111Z,1.20
2023-03-02T04:37:15.601Z,1.20
2023-03-02T04:39:43.070Z,1.10
2023-03-02T04:42:09.595Z,1.10
2023-03-02T04:44:36.107Z,1.10
2023-03-02T04:47:02.675Z,1.10
2023-03-02T04:49:29.339Z,1.10
2023-03-02T04:51:55.882Z,1.10
2023-03-02T04:54:26.149Z,1.20
2023-03-02T04:56:53.823Z,1.30
2023-03-02T04:59:25.841Z,1.20
2023-03-02T05:01:54.707Z,1.20
2023-03-02T05:04:21.681Z,1.20
2023-03-02T05:06:48.251Z,1.20
2023-03-02T05:09:15.566Z,1.10
2023-03-02T05:11:42.169Z,0.90
2023-03-02T05:14:11.353Z,0.90
2023-03-02T05:16:39.757Z,1.00
2023-03-02T05:19:08.593Z,0.90
2023-03-02T05:21:35.337Z,0.90
2023-03-02T05:24:03.137Z,1.00
2023-03-02T05:26:29.816Z,1.00
2023-03-02T05:28:56.581Z,0.90
2023-03-02T05:31:29.256Z,0.90
2023-03-02T05:33:55.849Z,1.00
2023-03-02T05:36:23.384Z,1.00
2023-03-02T05:38:50.056Z,1.10
2023-03-02T05:41:16.799Z,1.00
2023-03-02T05:43:43.565Z,1.00
2023-03-02T05:46:10.209Z,1.00
2023-03-02T05:48:36.811Z,1.00
2023-03-02T05:51:03.700Z,1.00
2023-03-02T05:53:30.279Z,0.90
2023-03-02T05:55:56.824Z,0.90
2023-03-02T05:58:23.377Z,1.00
2023-03-02T06:00:50.009Z,1.00
2023-03-02T06:03:17.273Z,0.90
2023-03-02T06:05:43.932Z,0.90
2023-03-02T06:08:10.870Z,0.90
2023-03-02T06:10:37.470Z,0.90
2023-03-02T06:13:04.094Z,0.90
2023-03-02T06:15:30.725Z,0.90
2023-03-02T06:17:57.879Z,0.90
2023-03-02T06:20:24.804Z,0.80
2023-03-02T06:22:51.547Z,0.80
2023-03-02T06:25:23.407Z,0.90
2023-03-02T06:27:53.735Z,0.90
2023-03-02T06:30:23.250Z,1.00
2023-03-02T06:32:49.986Z,1.00
2023-03-02T06:35:16.876Z,1.00
2023-03-02T06:37:44.526Z,0.90
2023-03-02T06:40:13.538Z,0.90
2023-03-02T06:42:41.193Z,1.00
2023-03-02T06:45:08.682Z,1.00
2023-03-02T06:47:35.693Z,1.10
2023-03-02T06:50:02.502Z,1.10
2023-03-02T06:52:29.115Z,1.10
2023-03-02T06:54:56.682Z,1.20
2023-03-02T06:57:23.555Z,1.20
2023-03-02T06:59:50.128Z,1.20
2023-03-02T07:02:16.707Z,1.20
2023-03-02T07:04:43.299Z,1.30
2023-03-02T07:07:10.110Z,1.30
2023-03-02T07:09:36.684Z,1.40
2023-03-02T07:12:03.387Z,1.50
2023-03-02T07:14:29.943Z,1.50
2023-03-02T07:16:57.422Z,1.60
2023-03-02T07:19:24.123Z,1.60
2023-03-02T07:21:50.662Z,1.70
2023-03-02T07:24:17.194Z,1.80
2023-03-02T07:26:43.832Z,1.80
2023-03-02T07:29:10.378Z,1.90
2023-03-02T07:31:37.018Z,1.90
2023-03-02T07:34:03.855Z,2.10
2023-03-02T07:36:30.427Z,2.10
2023-03-02T07:38:57.493Z,2.20
2023-03-02T07:41:24.072Z,2.30
2023-03-02T07:43:50.628Z,2.30
2023-03-02T07:46:17.330Z,2.30
2023-03-02T07:48:44.104Z,2.20
2023-03-02T07:51:10.726Z,2.30
2023-03-02T07:53:40.170Z,2.40
2023-03-02T07:56:09.403Z,2.50
2023-03-02T07:58:36.018Z,2.70
2023-03-02T08:01:03.267Z,2.80
2023-03-02T08:03:29.833Z,2.80
2023-03-02T08:05:56.386Z,2.90
2023-03-02T08:08:22.965Z,2.90
2023-03-02T08:10:49.529Z,2.90
2023-03-02T08:13:16.419Z,3.00
2023-03-02T08:15:42.983Z,3.10
2023-03-02T08:18:09.599Z,3.20
2023-03-02T08:20:37.302Z,3.10
2023-03-02T08:23:03.854Z,3.30
2023-03-02T08:25:30.422Z,3.40
2023-03-02T08:27:56.941Z,3.50
2023-03-02T08:30:23.572Z,3.60
2023-03-02T08:32:50.191Z,3.70
2023-03-02T08:35:17.296Z,3.80
2023-03-02T08:37:43.882Z,3.90
2023-03-02T08:40:11.093Z,4.10
2023-03-02T08:42:37.665Z,4.20
2023-03-02T08:45:04.762Z,4.40
2023-03-02T08:47:32.347Z,4.40
2023-03-02T08:49:58.906Z,4.40
2023-03-02T08:52:25.508Z,4.60
2023-03-02T08:54:52.143Z,4.70
2023-03-02T08:57:20.373Z,4.30
2023-03-02T08:59:47.941Z,4.20
2023-03-02T09:02:14.604Z,4.30
2023-03-02T09:04:41.441Z,4.40
2023-03-02T09:07:09.509Z,4.70
2023-03-02T09:09:36.397Z,4.90
2023-03-02T09:12:03.007Z,4.70
2023-03-02T09:14:29.619Z,4.70
2023-03-02T09:16:56.293Z,5.00
2023-03-02T09:19:22.915Z,5.20
2023-03-02T09:21:49.719Z,5.10
2023-03-02T09:24:17.405Z,5.20
2023-03-02T09:26:44.241Z,5.40
2023-03-02T09:29:11.000Z,5.30
2023-03-02T09:31:38.310Z,5.40
2023-03-02T09:34:05.775Z,5.70
2023-03-02T09:36:32.733Z,5.60
2023-03-02T09:38:59.416Z,5.50
2023-03-02T09:41:40.403Z,5.70
2023-03-02T09:44:31.585Z,5.90
2023-03-02T09:47:05.371Z,6.00
2023-03-02T09:50:09.603Z,6.00
2023-03-02T09:52:40.652Z,6.10
2023-03-02T09:55:19.923Z,6.30
2023-03-02T09:57:47.002Z,6.60
2023-03-02T10:00:23.342Z,6.40
2023-03-02T10:02:54.466Z,6.50
2023-03-02T10:05:28.919Z,6.50
2023-03-02T10:07:57.829Z,6.60
2023-03-02T10:10:36.983Z,6.70
2023-03-02T10:13:26.474Z,6.70
2023-03-02T10:15:53.083Z,6.80
2023-03-02T10:18:48.410Z,7.20
2023-03-02T10:21:29.620Z,7.10
2023-03-02T10:24:12.325Z,7.20
2023-03-02T10:26:42.058Z,7.20
2023-03-02T10:29:46.029Z,7.30
2023-03-02T10:32:23.419Z,7.40
2023-03-02T10:34:52.435Z,7.30
2023-03-02T10:37:22.798Z,7.50
2023-03-02T10:39:49.677Z,7.40
2023-03-02T10:42:41.822Z,7.30
2023-03-02T10:45:30.995Z,7.40
2023-03-02T10:48:02.021Z,7.50
2023-03-02T10:50:30.514Z,7.60
2023-03-02T10:53:01.110Z,7.70
2023-03-02T10:55:28.746Z,7.70
2023-03-02T10:58:05.459Z,7.90
2023-03-02T11:00:33.791Z,7.90
2023-03-02T11:03:21.450Z,8.00
2023-03-02T11:05:48.256Z,8.20
2023-03-02T11:08:24.117Z,8.30
2023-03-02T11:11:00.825Z,8.40
2023-03-02T11:13:34.041Z,8.40
2023-03-02T11:16:22.181Z,8.60
2023-03-02T11:18:57.836Z,8.50
2023-03-02T11:21:45.175Z,8.70
2023-03-02T11:24:36.057Z,8.70
2023-03-02T11:27:03.392Z,8.90
2023-03-02T11:29:52.070Z,9.20
2023-03-02T11:32:22.574Z,9.30
2023-03-02T11:34:57.627Z,9.40
2023-03-02T11:37:30.115Z,9.70
2023-03-02T11:40:17.998Z,9.70
2023-03-02T11:42:45.642Z,9.90
2023-03-02T11:45:15.416Z,9.90
2023-03-02T11:47:54.303Z,10.00
2023-03-02T11:50:26.087Z,10.00
2023-03-02T11:52:58.543Z,10.10
2023-03-02T11:55:28.716Z,10.10
2023-03-02T12:00:31.116Z,10.20
2023-03-02T12:02:59.377Z,10.20
2023-03-02T12:05:29.223Z,10.40
2023-03-02T12:08:08.516Z,10.60
2023-03-02T12:10:42.407Z,10.80
2023-03-02T12:13:17.111Z,11.00
2023-03-02T12:15:46.774Z,10.90
2023-03-02T12:18:22.057Z,11.10
2023-03-02T12:21:08.618Z,11.50
2023-03-02T12:23:41.168Z,12.00
2023-03-02T12:26:20.273Z,12.10
2023-03-02T12:29:09.846Z,12.40
2023-03-02T12:31:47.255Z,12.40
2023-03-02T12:34:32.473Z,12.50
2023-03-02T12:37:04.359Z,12.50
2023-03-02T12:39:56.429Z,12.60
2023-03-02T12:42:44.515Z,12.60
2023-03-02T12:45:11.714Z,12.80
2023-03-02T12:47:41.401Z,12.80
2023-03-02T12:50:19.883Z,12.80
2023-03-02T12:53:04.031Z,12.60
2023-03-02T12:55:30.979Z,12.60
2023-03-02T12:58:02.964Z,12.50
2023-03-02T13:00:32.767Z,12.80
2023-03-02T13:03:02.122Z,13.00
2023-03-02T13:05:32.088Z,13.20
2023-03-02T13:08:04.191Z,13.30
2023-03-02T13:10:38.456Z,13.80
2023-03-02T13:13:21.017Z,14.20
2023-03-02T13:15:57.230Z,14.00
2023-03-02T13:18:27.150Z,14.20
2023-03-02T13:20:55.093Z,14.30
2023-03-02T13:23:21.656Z,14.20
2023-03-02T13:25:54.413Z,14.40
2023-03-02T13:28:32.463Z,14.60
2023-03-02T13:31:07.214Z,14.50
2023-03-02T13:33:42.359Z,14.70
2023-03-02T13:36:16.966Z,14.90
2023-03-02T13:38:57.100Z,14.60
2023-03-02T13:41:25.987Z,14.50
2023-03-02T13:43:52.841Z,14.60
2023-03-02T13:46:20.045Z,14.80
2023-03-02T13:49:09.184Z,14.60
2023-03-02T13:51:40.866Z,14.60
2023-03-02T13:54:22.780Z,14.80
2023-03-02T13:56:51.302Z,14.90
2023-03-02T13:59:20.041Z,15.90
2023-03-02T14:01:47.388Z,16.40
2023-03-02T14:04:17.533Z,16.10
2023-03-02T14:06:45.347Z,15.40
2023-03-02T14:09:12.055Z,14.90
2023-03-02T14:11:49.111Z,14.80
2023-03-02T14:14:24.668Z,15.00
2023-03-02T14:16:51.429Z,15.20
2023-03-02T14:19:18.531Z,15.10
2023-03-02T14:21:46.542Z,15.10
2023-03-02T14:24:13.249Z,15.10
2023-03-02T14:26:47.135Z,15.20
2023-03-02T14:29:28.932Z,14.80
2023-03-02T14:31:56.870Z,14.30
2023-03-02T14:34:23.575Z,14.60
2023-03-02T14:36:53.468Z,14.50
2023-03-02T14:39:22.191Z,14.30
2023-03-02T14:45:42.464Z,13.90
2023-03-02T14:48:08.984Z,13.80
2023-03-02T14:50:40.375Z,13.80
2023-03-02T14:53:12.510Z,13.60
2023-03-02T14:55:40.998Z,13.50
2023-03-02T14:58:18.111Z,13.40
2023-03-02T15:00:45.115Z,13.50
2023-03-02T15:03:22.448Z,13.40
2023-03-02T15:06:00.880Z,13.50
2023-03-02T15:08:29.064Z,13.40
2023-03-02T15:10:55.973Z,13.30
2023-03-02T15:13:22.550Z,13.40
2023-03-02T15:15:49.938Z,13.70
2023-03-02T15:18:19.549Z,14.20
2023-03-02T15:20:46.337Z,14.20
2023-03-02T15:23:12.924Z,14.50
2023-03-02T15:25:39.626Z,15.00
2023-03-02T15:28:06.234Z,15.20
2023-03-02T15:30:32.782Z,15.20
2023-03-02T15:32:59.477Z,15.10
2023-03-02T15:35:27.793Z,14.80
2023-03-02T15:37:55.577Z,14.80
2023-03-02T15:40:22.129Z,14.80
2023-03-02T15:42:48.916Z,14.80
2023-03-02T15:45:15.507Z,14.60
2023-03-02T15:47:42.118Z,14.30
2023-03-02T15:50:09.797Z,14.10
2023-03-02T15:52:36.382Z,13.90
2023-03-02T15:55:03.414Z,13.90
2023-03-02T15:57:29.986Z,14.00
2023-03-02T15:59:56.591Z,13.90
2023-03-02T16:02:23.094Z,14.00
2023-03-02T16:04:49.624Z,14.00
2023-03-02T16:07:16.139Z,13.70
2023-03-02T16:09:45.176Z,13.50
2023-03-02T16:12:11.750Z,13.30
2023-03-02T16:14:38.310Z,13.10
2023-03-02T16:17:04.907Z,13.00
2023-03-02T16:19:32.155Z,12.80
2023-03-02T16:21:58.888Z,12.70
2023-03-02T16:24:25.582Z,12.50
2023-03-02T16:26:53.073Z,12.20
2023-03-02T16:29:19.750Z,12.10
2023-03-02T16:31:47.258Z,12.00
2023-03-02T16:34:14.208Z,11.90
2023-03-02T16:36:42.049Z,11.80
2023-03-02T16:39:10.521Z,11.70
2023-03-02T16:41:39.468Z,11.60
2023-03-02T16:44:06.676Z,11.50
2023-03-02T16:46:36.562Z,11.50
2023-03-02T16:49:04.025Z,11.40
2023-03-02T16:51:30.602Z,11.20
2023-03-02T16:53:57.332Z,11.10
2023-03-02T16:56:24.143Z,10.90
2023-03-02T16:58:50.662Z,10.80
2023-03-02T17:01:20.266Z,10.60
2023-03-02T17:03:47.856Z,10.40
2023-03-02T17:06:16.271Z,10.30
2023-03-02T17:08:43.041Z,10.30
2023-03-02T17:11:09.990Z,10.20
2023-03-02T17:13:36.698Z,10.10
2023-03-02T17:16:03.599Z,10.00
2023-03-02T17:18:30.700Z,9.90
2023-03-02T17:20:58.705Z,9.80
2023-03-02T17:23:27.077Z,9.70
2023-03-02T17:25:54.458Z,9.60
2023-03-02T17:28:21.472Z,9.50
2023-03-02T17:30:48.140Z,9.40
2023-03-02T17:33:14.959Z,9.30
2023-03-02T17:35:42.464Z,9.30
2023-03-02T17:38:09.296Z,9.20
2023-03-02T17:40:35.978Z,9.10
2023-03-02T17:43:02.821Z,9.00
2023-03-02T17:45:29.665Z,9.00
2023-03-02T17:47:57.906Z,9.00
2023-03-02T17:50:25.037Z,8.90
2023-03-02T17:52:51.684Z,8.80
2023-03-02T17:55:18.387Z,8.80
2023-03-02T17:57:45.064Z,8.80
2023-03-02T18:00:16.261Z,8.70
2023-03-02T18:02:42.903Z,8.70
2023-03-02T18:05:10.481Z,8.70
2023-03-02T18:07:37.580Z,8.60
2023-03-02T18:10:06.931Z,8.60
2023-03-02T18:12:34.588Z,8.50
2023-03-02T18:15:01.373Z,8.40
2023-03-02T18:17:28.312Z,8.30
2023-03-02T18:19:55.005Z,8.20
2023-03-02T18:22:21.984Z,8.20
2023-03-02T18:24:50.573Z,8.20
2023-03-02T18:27:17.543Z,8.10
2023-03-02T18:29:44.315Z,8.10
2023-03-02T18:32:11.542Z,8.00
2023-03-02T18:34:40.927Z,8.10
2023-03-02T18:37:08.172Z,7.90
2023-03-02T18:39:35.106Z,7.80
2023-03-02T18:42:01.794Z,7.90
2023-03-02T18:44:31.121Z,7.80
2023-03-02T18:46:58.583Z,7.80
2023-03-02T18:49:25.549Z,7.70
2023-03-02T18:51:53.006Z,7.60
2023-03-02T18:54:19.630Z,7.60
2023-03-02T18:56:46.359Z,7.60
2023-03-02T18:59:13.886Z,7.60
2023-03-02T19:01:40.764Z,7.50
2023-03-02T19:04:07.447Z,7.40
2023-03-02T19:06:34.543Z,7.30
2023-03-02T19:09:01.266Z,7.20
2023-03-02T19:15:10.421Z,7.10
2023-03-02T19:17:39.604Z,7.20
2023-03-02T19:20:07.518Z,7.10
2023-03-02T19:22:34.601Z,7.10
2023-03-02T19:25:01.186Z,7.00
2023-03-02T19:27:27.835Z,7.00
2023-03-02T19:29:54.551Z,7.00
2023-03-02T19:32:21.442Z,6.90
2023-03-02T19:34:48.683Z,6.90
2023-03-02T19:37:15.408Z,6.80
2023-03-02T19:39:42.357Z,6.70
2023-03-02T19:42:09.458Z,6.70
2023-03-02T19:44:36.456Z,6.70
2023-03-02T19:47:04.176Z,6.60
2023-03-02T19:49:30.702Z,6.60
2023-03-02T19:51:58.892Z,6.50
2023-03-02T19:54:25.785Z,6.50
2023-03-02T19:56:53.821Z,6.40
2023-03-02T19:59:22.029Z,6.30
2023-03-02T20:01:51.018Z,6.30
2023-03-02T20:04:18.513Z,6.20
2023-03-02T20:06:45.561Z,6.20
2023-03-02T20:09:14.437Z,6.20
2023-03-02T20:11:41.009Z,6.20
2023-03-02T20:14:07.587Z,6.20
2023-03-02T20:16:35.549Z,6.20
2023-03-02T20:19:03.249Z,6.20
2023-03-02T20:21:31.367Z,6.30
2023-03-02T20:23:58.410Z,6.10
2023-03-02T20:26:26.521Z,5.90
2023-03-02T20:28:55.327Z,5.70
2023-03-02T20:31:24.468Z,5.80
2023-03-02T20:33:54.201Z,5.80
2023-03-02T20:36:28.024Z,5.90
2023-03-02T20:39:00.443Z,5.90
2023-03-02T20:41:27.394Z,5.70
2023-03-02T20:43:54.340Z,5.70
2023-03-02T20:46:25.102Z,5.70
2023-03-02T20:48:52.731Z,5.50
2023-03-02T20:51:20.482Z,5.40
2023-03-02T20:53:47.149Z,5.50
2023-03-02T20:56:15.204Z,5.50
2023-03-02T20:58:43.305Z,5.60
2023-03-02T21:01:11.332Z,5.70
2023-03-02T21:03:38.548Z,5.60
2023-03-02T21:06:07.267Z,5.60
2023-03-02T21:08:38.569Z,5.60
2023-03-02T21:11:10.629Z,5.50
2023-03-02T21:13:39.043Z,5.50
2023-03-02T21:16:08.404Z,5.40
2023-03-02T21:18:35.308Z,5.30
2023-03-02T21:21:02.812Z,5.30
2023-03-02T21:23:29.469Z,5.30
2023-03-02T21:25:56.919Z,5.10
2023-03-02T21:28:23.564Z,5.00
2023-03-02T21:30:50.276Z,4.80
2023-03-02T21:33:16.906Z,4.90
2023-03-02T21:35:46.196Z,5.00
2023-03-02T21:38:13.251Z,4.90
2023-03-02T21:40:45.628Z,4.80
2023-03-02T21:43:13.192Z,4.80
2023-03-02T21:45:41.154Z,4.70
2023-03-02T21:48:08.488Z,4.60
2023-03-02T21:50:37.868Z,4.60
2023-03-02T21:53:05.169Z,4.60
2023-03-02T21:55:32.923Z,4.60
2023-03-02T21:58:00.113Z,4.60
2023-03-02T22:00:32.851Z,4.70
2023-03-02T22:03:00.600Z,4.70
2023-03-02T22:05:27.808Z,4.50
2023-03-02T22:07:55.062Z,4.30
2023-03-02T22:10:37.913Z,4.40
2023-03-02T22:13:13.474Z,4.40
2023-03-02T22:15:41.484Z,4.30
2023-03-02T22:18:16.354Z,4.30
2023-03-02T22:20:45.334Z,4.40
2023-03-02T22:23:14.383Z,4.40
2023-03-02T22:25:43.408Z,4.30
2023-03-02T22:28:22.525Z,4.20
2023-03-02T22:30:53.633Z,4.20
2023-03-02T22:33:23.586Z,4.20
2023-03-02T22:35:51.592Z,4.20
2023-03-02T22:38:22.843Z,4.10
2023-03-02T22:40:49.566Z,4.20
2023-03-02T22:43:24.777Z,4.10
2023-03-02T22:46:15.726Z,4.10
2023-03-02T22:48:44.920Z,4.10
2023-03-02T22:51:27.843Z,4.00
2023-03-02T22:53:56.783Z,4.20
2023-03-02T22:56:28.578Z,4.20
2023-03-02T22:58:56.776Z,4.20
2023-03-02T23:01:24.837Z,4.20
2023-03-02T23:03:54.936Z,4.20
2023-03-02T23:06:33.195Z,4.10
2023-03-02T23:09:02.160Z,4.20
2023-03-02T23:11:31.735Z,4.10
2023-03-02T23:14:01.729Z,4.10
2023-03-02T23:16:34.016Z,4.10
2023-03-02T23:19:01.631Z,4.10
2023-03-02T23:21:38.715Z,4.10
2023-03-02T23:24:07.376Z,4.00
2023-03-02T23:26:34.556Z,3.90
2023-03-02T23:29:01.273Z,4.00
2023-03-02T23:31:27.864Z,4.00
2023-03-02T23:33:54.527Z,3.90
2023-03-02T23:36:21.317Z,3.90
2023-03-02T23:38:48.864Z,3.90
2023-03-02T23:41:16.063Z,3.90
2023-03-02T23:43:42.762Z,3.90
2023-03-02T23:46:13.823Z,3.80
2023-03-02T23:48:41.784Z,3.90
2023-03-02T23:51:08.866Z,3.90
2023-03-02T23:53:35.539Z,3.70
2023-03-02T23:56:02.317Z,3.80
2023-03-02T23:58:28.960Z,3.80
